Erp, Netherlands
Current Conditions -  °F | °C
As of 9:25 AM on Saturday 25 Oct 2014 (Local Time) from EHVK Reporting Station
Haze Haze  
Wind Chill: 55°   Ceiling: 300
Heat Index: 55°   Visibility: 1.6mi
Dew Point: 54°   Wind: 7mph
Humidity: 94%   Direction: 220°SW
Pressure: 30.03"   Gusts: NA
Location:  51.6°N, 5.61°E
Report Text: EHVK 250725Z AUTO 22006KT 2600 BR OVC003 13/12 Q1017 YLO
Loading
Personal Weather Stations






























Interactive Weather Map
Tropical Storm Tracking
New forecast layout! Learn more

10-Day Weather Forecast

Advertisements
Track Severe Weather on mobile